Schedule Details

Flight Number: CPX954
Departure: Patrick Air Force Base (KCOF) at N/A
Arrival: Miami International Airport (KMIA) at N/A
Route: MLB BLUFI4


Current Weather Information
KCOF 192156Z AUTO 12012KT 10SM CLR 24/24 A3013 RMK AO2 SLP207 T02380236 $
KMIA 192153Z 11013KT 10SM BKN030 27/20 A3013 RMK AO2 SLP201 T02670200